Nichols, South Carolina
Current Conditions -  °F | °C
As of 4:55 PM on Thursday 27 Nov 2014 (Local Time) from KMAO Reporting Station
Scattered Clouds Scattered Clouds  
Wind Chill: 48°   Ceiling: Unl
Heat Index: 48°   Visibility: 10mi
Dew Point: 36°   Wind: 3mph
Humidity: 62%   Direction: 330°NNW
Pressure: 30.15"   Gusts: NA
Location:  34.23°N, 79.15°W
Report Text: KMAO 272155Z AUTO 33003KT 10SM SCT085 09/02 A3015 RMK AO2
Loading
Personal Weather Stations






























Interactive Weather Map New forecast layout! Learn more

10-Day Weather Forecast

Advertisements
Track Severe Weather on mobile